Cheverly, Maryland
Current Conditions -  °F | °C
As of 2:10 PM on Thursday 23 Oct 2014 (Local Time) from KCGS Reporting Station
Overcast Overcast  
Wind Chill: 61°   Ceiling: 4200
Heat Index: 61°   Visibility: 10mi
Dew Point: 45°   Wind: 13mph
Humidity: 55%   Direction: 310°NW
Pressure: 29.85"   Gusts: 24mph
Location:  38.9534°N, 76.9444°W
Report Text: KCGS 231810Z AUTO 31011G21KT 270V340 10SM OVC042 16/07 A2985 RMK AO1
Loading
Personal Weather Stations






























Interactive Weather Map
Tropical Storm Tracking
New forecast layout! Learn more

10-Day Weather Forecast

Advertisements
Track Severe Weather on mobile